sensor_id;sensor_type;location;lat;lon;timestamp;temperature;humidity
78366;HTU21D;67641;59.864;30.464;2023-07-08T00:02:18;26.28;41.11
78366;HTU21D;67641;59.864;30.464;2023-07-08T00:04:45;26.32;41.16
78366;HTU21D;67641;59.864;30.464;2023-07-08T00:07:13;26.26;41.37
78366;HTU21D;67641;59.864;30.464;2023-07-08T00:09:42;26.22;41.54
78366;HTU21D;67641;59.864;30.464;2023-07-08T00:12:10;26.22;42.09
78366;HTU21D;67641;59.864;30.464;2023-07-08T00:14:37;26.21;41.74
78366;HTU21D;67641;59.864;30.464;2023-07-08T00:17:11;26.23;41.55
78366;HTU21D;67641;59.864;30.464;2023-07-08T00:21:21;26.23;41.29
78366;HTU21D;67641;59.864;30.464;2023-07-08T00:23:49;26.23;41.63
78366;HTU21D;67641;59.864;30.464;2023-07-08T00:26:25;26.26;41.42
78366;HTU21D;67641;59.864;30.464;2023-07-08T00:28:53;26.28;41.03
78366;HTU21D;67641;59.864;30.464;2023-07-08T00:31:19;26.34;41.66
78366;HTU21D;67641;59.864;30.464;2023-07-08T00:33:50;26.34;41.58
78366;HTU21D;67641;59.864;30.464;2023-07-08T00:36:17;26.32;41.67
78366;HTU21D;67641;59.864;30.464;2023-07-08T00:38:44;26.27;41.75
78366;HTU21D;67641;59.864;30.464;2023-07-08T00:41:37;26.28;41.61
78366;HTU21D;67641;59.864;30.464;2023-07-08T00:44:10;26.23;42.26
78366;HTU21D;67641;59.864;30.464;2023-07-08T00:46:52;26.23;42.69
78366;HTU21D;67641;59.864;30.464;2023-07-08T00:51:50;26.17;41.81
78366;HTU21D;67641;59.864;30.464;2023-07-08T00:54:18;26.15;42.29
78366;HTU21D;67641;59.864;30.464;2023-07-08T01:02:05;26.20;42.70
78366;HTU21D;67641;59.864;30.464;2023-07-08T01:07:14;26.15;43.78
78366;HTU21D;67641;59.864;30.464;2023-07-08T01:09:51;26.12;43.55
78366;HTU21D;67641;59.864;30.464;2023-07-08T01:12:22;26.09;44.00
78366;HTU21D;67641;59.864;30.464;2023-07-08T01:14:52;26.06;43.78
78366;HTU21D;67641;59.864;30.464;2023-07-08T01:17:21;26.04;44.16
78366;HTU21D;67641;59.864;30.464;2023-07-08T01:19:49;26.05;43.91
78366;HTU21D;67641;59.864;30.464;2023-07-08T01:24:09;25.99;45.21
78366;HTU21D;67641;59.864;30.464;2023-07-08T01:26:40;26.04;44.88
78366;HTU21D;67641;59.864;30.464;2023-07-08T01:29:08;26.06;45.49
78366;HTU21D;67641;59.864;30.464;2023-07-08T01:31:35;26.05;45.43
78366;HTU21D;67641;59.864;30.464;2023-07-08T01:34:02;26.02;45.58
78366;HTU21D;67641;59.864;30.464;2023-07-08T01:36:34;26.05;46.22
78366;HTU21D;67641;59.864;30.464;2023-07-08T01:39:03;26.01;46.07
78366;HTU21D;67641;59.864;30.464;2023-07-08T01:41:30;25.95;46.08
78366;HTU21D;67641;59.864;30.464;2023-07-08T01:45:42;25.95;46.63
78366;HTU21D;67641;59.864;30.464;2023-07-08T01:48:18;25.93;46.69
78366;HTU21D;67641;59.864;30.464;2023-07-08T01:50:56;25.92;46.54
78366;HTU21D;67641;59.864;30.464;2023-07-08T01:53:34;25.93;46.69
78366;HTU21D;67641;59.864;30.464;2023-07-08T01:56:03;25.90;46.33
78366;HTU21D;67641;59.864;30.464;2023-07-08T01:58:30;25.88;47.14
78366;HTU21D;67641;59.864;30.464;2023-07-08T02:00:56;25.88;47.41
78366;HTU21D;67641;59.864;30.464;2023-07-08T02:03:23;25.90;46.36
78366;HTU21D;67641;59.864;30.464;2023-07-08T02:07:19;25.86;47.17
78366;HTU21D;67641;59.864;30.464;2023-07-08T02:09:45;25.82;46.83
78366;HTU21D;67641;59.864;30.464;2023-07-08T02:12:12;25.83;47.38
78366;HTU21D;67641;59.864;30.464;2023-07-08T02:14:39;25.78;46.34
78366;HTU21D;67641;59.864;30.464;2023-07-08T02:17:05;25.77;46.41
78366;HTU21D;67641;59.864;30.464;2023-07-08T02:19:32;25.78;47.16
78366;HTU21D;67641;59.864;30.464;2023-07-08T02:21:59;25.72;47.24
78366;HTU21D;67641;59.864;30.464;2023-07-08T02:24:26;25.64;47.12
78366;HTU21D;67641;59.864;30.464;2023-07-08T02:28:55;25.71;46.38
78366;HTU21D;67641;59.864;30.464;2023-07-08T02:31:22;25.71;47.16
78366;HTU21D;67641;59.864;30.464;2023-07-08T02:33:51;25.74;47.18
78366;HTU21D;67641;59.864;30.464;2023-07-08T02:36:18;25.76;47.12
78366;HTU21D;67641;59.864;30.464;2023-07-08T02:38:44;25.73;47.13
78366;HTU21D;67641;59.864;30.464;2023-07-08T02:41:11;25.74;47.50
78366;HTU21D;67641;59.864;30.464;2023-07-08T02:43:38;25.75;47.54
78366;HTU21D;67641;59.864;30.464;2023-07-08T02:46:05;25.72;47.76
78366;HTU21D;67641;59.864;30.464;2023-07-08T02:50:15;25.60;47.62
78366;HTU21D;67641;59.864;30.464;2023-07-08T02:52:43;25.54;47.91
78366;HTU21D;67641;59.864;30.464;2023-07-08T02:55:10;25.52;47.64
78366;HTU21D;67641;59.864;30.464;2023-07-08T02:57:36;25.54;47.99
78366;HTU21D;67641;59.864;30.464;2023-07-08T03:00:03;25.52;48.31
78366;HTU21D;67641;59.864;30.464;2023-07-08T03:02:31;25.51;48.34
78366;HTU21D;67641;59.864;30.464;2023-07-08T03:04:57;25.49;48.47
78366;HTU21D;67641;59.864;30.464;2023-07-08T03:07:25;25.51;48.88
78366;HTU21D;67641;59.864;30.464;2023-07-08T03:11:52;25.57;48.52
78366;HTU21D;67641;59.864;30.464;2023-07-08T03:14:18;25.56;47.76
78366;HTU21D;67641;59.864;30.464;2023-07-08T03:16:45;25.61;47.60
78366;HTU21D;67641;59.864;30.464;2023-07-08T03:19:12;25.59;48.90
78366;HTU21D;67641;59.864;30.464;2023-07-08T03:21:41;25.59;48.41
78366;HTU21D;67641;59.864;30.464;2023-07-08T03:24:12;25.60;48.14
78366;HTU21D;67641;59.864;30.464;2023-07-08T03:26:45;25.64;47.96
78366;HTU21D;67641;59.864;30.464;2023-07-08T03:31:11;25.66;49.65
78366;HTU21D;67641;59.864;30.464;2023-07-08T03:33:38;25.72;49.20
78366;HTU21D;67641;59.864;30.464;2023-07-08T03:36:15;25.69;48.87
78366;HTU21D;67641;59.864;30.464;2023-07-08T03:38:58;25.71;49.74
78366;HTU21D;67641;59.864;30.464;2023-07-08T03:41:25;25.73;49.81
78366;HTU21D;67641;59.864;30.464;2023-07-08T03:43:51;25.77;49.95
78366;HTU21D;67641;59.864;30.464;2023-07-08T03:46:19;25.82;49.69
78366;HTU21D;67641;59.864;30.464;2023-07-08T03:48:47;25.83;49.62
78366;HTU21D;67641;59.864;30.464;2023-07-08T03:53:47;25.91;49.76
78366;HTU21D;67641;59.864;30.464;2023-07-08T03:56:13;25.96;50.31
78366;HTU21D;67641;59.864;30.464;2023-07-08T03:58:40;25.96;50.83
78366;HTU21D;67641;59.864;30.464;2023-07-08T04:01:19;25.98;51.09
78366;HTU21D;67641;59.864;30.464;2023-07-08T04:03:53;25.96;50.77
78366;HTU21D;67641;59.864;30.464;2023-07-08T04:06:20;25.99;50.04
78366;HTU21D;67641;59.864;30.464;2023-07-08T04:08:48;25.99;49.82
78366;HTU21D;67641;59.864;30.464;2023-07-08T04:14:08;26.16;47.69
78366;HTU21D;67641;59.864;30.464;2023-07-08T04:16:52;26.15;49.18
78366;HTU21D;67641;59.864;30.464;2023-07-08T04:19:19;26.18;49.22
78366;HTU21D;67641;59.864;30.464;2023-07-08T04:21:46;26.22;49.53
78366;HTU21D;67641;59.864;30.464;2023-07-08T04:24:14;26.28;47.36
78366;HTU21D;67641;59.864;30.464;2023-07-08T04:26:41;26.36;48.49
78366;HTU21D;67641;59.864;30.464;2023-07-08T04:29:19;26.42;48.94
78366;HTU21D;67641;59.864;30.464;2023-07-08T04:31:46;26.49;49.39
78366;HTU21D;67641;59.864;30.464;2023-07-08T04:35:59;26.58;48.28
78366;HTU21D;67641;59.864;30.464;2023-07-08T04:38:26;26.62;48.18
78366;HTU21D;67641;59.864;30.464;2023-07-08T04:40:54;26.66;49.21
78366;HTU21D;67641;59.864;30.464;2023-07-08T04:43:22;26.70;49.15
78366;HTU21D;67641;59.864;30.464;2023-07-08T04:45:51;26.72;48.25
78366;HTU21D;67641;59.864;30.464;2023-07-08T04:48:20;26.71;49.33
78366;HTU21D;67641;59.864;30.464;2023-07-08T04:50:52;26.71;49.15
78366;HTU21D;67641;59.864;30.464;2023-07-08T04:53:19;26.77;48.12
78366;HTU21D;67641;59.864;30.464;2023-07-08T04:57:26;26.86;49.31
78366;HTU21D;67641;59.864;30.464;2023-07-08T04:59:53;26.83;50.05
78366;HTU21D;67641;59.864;30.464;2023-07-08T05:02:19;26.78;50.18
78366;HTU21D;67641;59.864;30.464;2023-07-08T05:04:46;26.76;49.73
78366;HTU21D;67641;59.864;30.464;2023-07-08T05:07:12;26.77;49.33
78366;HTU21D;67641;59.864;30.464;2023-07-08T05:09:38;26.79;47.13
78366;HTU21D;67641;59.864;30.464;2023-07-08T05:12:05;26.83;43.03
78366;HTU21D;67641;59.864;30.464;2023-07-08T05:14:32;26.86;42.67
78366;HTU21D;67641;59.864;30.464;2023-07-08T05:19:01;26.96;44.84
78366;HTU21D;67641;59.864;30.464;2023-07-08T05:21:29;27.00;42.87
78366;HTU21D;67641;59.864;30.464;2023-07-08T05:24:01;27.04;44.67
78366;HTU21D;67641;59.864;30.464;2023-07-08T05:26:28;27.09;45.19
78366;HTU21D;67641;59.864;30.464;2023-07-08T05:28:55;27.10;42.39
78366;HTU21D;67641;59.864;30.464;2023-07-08T05:31:22;27.14;43.17
78366;HTU21D;67641;59.864;30.464;2023-07-08T05:34:03;27.17;42.14
78366;HTU21D;67641;59.864;30.464;2023-07-08T05:36:29;27.20;42.96
78366;HTU21D;67641;59.864;30.464;2023-07-08T05:41:08;27.27;42.90
78366;HTU21D;67641;59.864;30.464;2023-07-08T05:43:34;27.30;43.53
78366;HTU21D;67641;59.864;30.464;2023-07-08T05:46:01;27.32;42.61
78366;HTU21D;67641;59.864;30.464;2023-07-08T05:48:28;27.35;42.77
78366;HTU21D;67641;59.864;30.464;2023-07-08T05:50:55;27.38;43.01
78366;HTU21D;67641;59.864;30.464;2023-07-08T05:53:30;27.39;42.49
78366;HTU21D;67641;59.864;30.464;2023-07-08T05:55:57;27.43;42.29
78366;HTU21D;67641;59.864;30.464;2023-07-08T06:00:59;27.53;43.88
78366;HTU21D;67641;59.864;30.464;2023-07-08T06:03:26;27.53;42.89
78366;HTU21D;67641;59.864;30.464;2023-07-08T06:05:53;27.58;41.58
78366;HTU21D;67641;59.864;30.464;2023-07-08T06:08:21;27.60;43.18
78366;HTU21D;67641;59.864;30.464;2023-07-08T06:10:49;27.64;42.52
78366;HTU21D;67641;59.864;30.464;2023-07-08T06:13:19;27.67;41.75
78366;HTU21D;67641;59.864;30.464;2023-07-08T06:15:47;27.69;43.24
78366;HTU21D;67641;59.864;30.464;2023-07-08T06:18:13;27.73;41.70
78366;HTU21D;67641;59.864;30.464;2023-07-08T06:23:13;27.82;41.36
78366;HTU21D;67641;59.864;30.464;2023-07-08T06:25:39;27.86;40.44
78366;HTU21D;67641;59.864;30.464;2023-07-08T06:28:07;27.91;40.17
78366;HTU21D;67641;59.864;30.464;2023-07-08T06:30:33;27.95;40.69
78366;HTU21D;67641;59.864;30.464;2023-07-08T06:33:02;28.02;41.13
78366;HTU21D;67641;59.864;30.464;2023-07-08T06:35:28;28.01;40.91
78366;HTU21D;67641;59.864;30.464;2023-07-08T06:38:04;28.03;42.53
78366;HTU21D;67641;59.864;30.464;2023-07-08T06:40:35;28.01;42.93
78366;HTU21D;67641;59.864;30.464;2023-07-08T06:43:33;28.02;46.48
78366;HTU21D;67641;59.864;30.464;2023-07-08T06:46:04;28.08;51.75
78366;HTU21D;67641;59.864;30.464;2023-07-08T06:48:33;28.01;46.35
78366;HTU21D;67641;59.864;30.464;2023-07-08T06:51:00;27.94;48.57
78366;HTU21D;67641;59.864;30.464;2023-07-08T06:53:27;27.91;48.17
78366;HTU21D;67641;59.864;30.464;2023-07-08T06:55:54;27.89;52.36
78366;HTU21D;67641;59.864;30.464;2023-07-08T06:58:20;27.90;49.17
78366;HTU21D;67641;59.864;30.464;2023-07-08T07:00:47;27.93;48.75
78366;HTU21D;67641;59.864;30.464;2023-07-08T07:05:39;27.91;47.78
78366;HTU21D;67641;59.864;30.464;2023-07-08T07:08:05;27.95;49.61
78366;HTU21D;67641;59.864;30.464;2023-07-08T07:10:34;27.94;50.92
78366;HTU21D;67641;59.864;30.464;2023-07-08T07:13:00;27.90;48.79
78366;HTU21D;67641;59.864;30.464;2023-07-08T07:15:27;27.91;47.91
78366;HTU21D;67641;59.864;30.464;2023-07-08T07:17:57;27.98;47.64
78366;HTU21D;67641;59.864;30.464;2023-07-08T07:20:24;28.03;48.48
78366;HTU21D;67641;59.864;30.464;2023-07-08T07:22:51;28.04;46.75
78366;HTU21D;67641;59.864;30.464;2023-07-08T07:27:50;28.17;46.86
78366;HTU21D;67641;59.864;30.464;2023-07-08T07:30:17;28.21;46.64
78366;HTU21D;67641;59.864;30.464;2023-07-08T07:32:44;28.26;46.53
78366;HTU21D;67641;59.864;30.464;2023-07-08T07:35:12;28.28;46.43
78366;HTU21D;67641;59.864;30.464;2023-07-08T07:37:43;28.29;46.53
78366;HTU21D;67641;59.864;30.464;2023-07-08T07:40:11;28.33;46.48
78366;HTU21D;67641;59.864;30.464;2023-07-08T07:42:41;28.34;46.53
78366;HTU21D;67641;59.864;30.464;2023-07-08T07:47:44;28.37;46.95
78366;HTU21D;67641;59.864;30.464;2023-07-08T07:50:10;28.25;46.71
78366;HTU21D;67641;59.864;30.464;2023-07-08T07:52:37;28.26;48.06
78366;HTU21D;67641;59.864;30.464;2023-07-08T07:55:04;28.25;47.88
78366;HTU21D;67641;59.864;30.464;2023-07-08T07:57:30;28.33;47.95
78366;HTU21D;67641;59.864;30.464;2023-07-08T07:59:56;28.33;49.60
78366;HTU21D;67641;59.864;30.464;2023-07-08T08:02:23;28.29;47.59
78366;HTU21D;67641;59.864;30.464;2023-07-08T08:04:49;28.29;50.05
78366;HTU21D;67641;59.864;30.464;2023-07-08T08:09:04;28.43;49.59
78366;HTU21D;67641;59.864;30.464;2023-07-08T08:11:30;28.41;47.90
78366;HTU21D;67641;59.864;30.464;2023-07-08T08:13:58;28.39;48.96
78366;HTU21D;67641;59.864;30.464;2023-07-08T08:16:26;28.31;47.76
78366;HTU21D;67641;59.864;30.464;2023-07-08T08:18:56;28.40;47.94
78366;HTU21D;67641;59.864;30.464;2023-07-08T08:21:22;28.38;46.43
78366;HTU21D;67641;59.864;30.464;2023-07-08T08:23:49;28.41;49.62
78366;HTU21D;67641;59.864;30.464;2023-07-08T08:26:15;28.50;46.06
78366;HTU21D;67641;59.864;30.464;2023-07-08T08:29:53;28.71;48.24
78366;HTU21D;67641;59.864;30.464;2023-07-08T08:32:19;28.68;46.14
78366;HTU21D;67641;59.864;30.464;2023-07-08T08:34:46;28.80;45.45
78366;HTU21D;67641;59.864;30.464;2023-07-08T08:37:13;28.95;45.21
78366;HTU21D;67641;59.864;30.464;2023-07-08T08:39:40;29.05;44.83
78366;HTU21D;67641;59.864;30.464;2023-07-08T08:42:19;29.13;46.61
78366;HTU21D;67641;59.864;30.464;2023-07-08T08:44:46;29.29;46.02
78366;HTU21D;67641;59.864;30.464;2023-07-08T08:50:21;29.34;46.17
78366;HTU21D;67641;59.864;30.464;2023-07-08T08:52:51;29.38;46.85
78366;HTU21D;67641;59.864;30.464;2023-07-08T08:55:22;29.48;43.56
78366;HTU21D;67641;59.864;30.464;2023-07-08T09:01:02;29.67;47.08
78366;HTU21D;67641;59.864;30.464;2023-07-08T09:03:51;29.66;47.27
78366;HTU21D;67641;59.864;30.464;2023-07-08T09:14:37;30.08;47.31
78366;HTU21D;67641;59.864;30.464;2023-07-08T09:20:11;30.19;47.05
78366;HTU21D;67641;59.864;30.464;2023-07-08T09:27:43;30.44;46.16
78366;HTU21D;67641;59.864;30.464;2023-07-08T09:32:42;30.34;47.99
78366;HTU21D;67641;59.864;30.464;2023-07-08T09:35:18;30.28;48.41
78366;HTU21D;67641;59.864;30.464;2023-07-08T09:37:47;30.15;49.47
78366;HTU21D;67641;59.864;30.464;2023-07-08T09:40:31;29.97;50.03
78366;HTU21D;67641;59.864;30.464;2023-07-08T09:43:04;29.76;50.95
78366;HTU21D;67641;59.864;30.464;2023-07-08T09:45:43;29.74;51.53
78366;HTU21D;67641;59.864;30.464;2023-07-08T09:48:25;29.91;51.62
78366;HTU21D;67641;59.864;30.464;2023-07-08T09:53:28;29.87;51.79
78366;HTU21D;67641;59.864;30.464;2023-07-08T09:55:58;29.89;52.23
78366;HTU21D;67641;59.864;30.464;2023-07-08T09:58:39;29.93;52.35
78366;HTU21D;67641;59.864;30.464;2023-07-08T10:01:14;29.88;52.91
78366;HTU21D;67641;59.864;30.464;2023-07-08T10:03:42;30.01;53.23
78366;HTU21D;67641;59.864;30.464;2023-07-08T10:06:18;30.18;51.56
78366;HTU21D;67641;59.864;30.464;2023-07-08T10:08:47;30.09;52.79
78366;HTU21D;67641;59.864;30.464;2023-07-08T10:13:52;29.95;53.84
78366;HTU21D;67641;59.864;30.464;2023-07-08T10:16:23;29.88;54.04
78366;HTU21D;67641;59.864;30.464;2023-07-08T10:18:50;29.77;54.62
78366;HTU21D;67641;59.864;30.464;2023-07-08T10:30:16;30.52;51.96
78366;HTU21D;67641;59.864;30.464;2023-07-08T10:40:34;30.61;50.56
78366;HTU21D;67641;59.864;30.464;2023-07-08T10:56:47;32.12;45.22
78366;HTU21D;67641;59.864;30.464;2023-07-08T10:59:35;32.02;45.32
78366;HTU21D;67641;59.864;30.464;2023-07-08T11:07:42;33.26;42.28
78366;HTU21D;67641;59.864;30.464;2023-07-08T11:10:13;33.95;40.88
78366;HTU21D;67641;59.864;30.464;2023-07-08T11:15:36;35.53;37.11
78366;HTU21D;67641;59.864;30.464;2023-07-08T12:05:38;35.06;39.67
78366;HTU21D;67641;59.864;30.464;2023-07-08T12:08:17;35.26;40.34
78366;HTU21D;67641;59.864;30.464;2023-07-08T12:10:50;35.86;39.85
78366;HTU21D;67641;59.864;30.464;2023-07-08T12:13:22;36.15;37.82
78366;HTU21D;67641;59.864;30.464;2023-07-08T12:15:49;36.60;36.93
78366;HTU21D;67641;59.864;30.464;2023-07-08T12:18:25;36.90;36.01
78366;HTU21D;67641;59.864;30.464;2023-07-08T12:21:17;37.06;34.81
78366;HTU21D;67641;59.864;30.464;2023-07-08T12:23:47;37.06;35.16
78366;HTU21D;67641;59.864;30.464;2023-07-08T12:26:15;37.08;35.42
78366;HTU21D;67641;59.864;30.464;2023-07-08T12:28:42;37.05;35.20
78366;HTU21D;67641;59.864;30.464;2023-07-08T12:31:20;36.96;35.77
78366;HTU21D;67641;59.864;30.464;2023-07-08T12:33:48;36.84;37.40
78366;HTU21D;67641;59.864;30.464;2023-07-08T12:36:23;36.37;38.54
78366;HTU21D;67641;59.864;30.464;2023-07-08T12:38:55;35.89;40.54
78366;HTU21D;67641;59.864;30.464;2023-07-08T12:43:55;35.01;42.71
78366;HTU21D;67641;59.864;30.464;2023-07-08T12:46:22;34.51;44.61
78366;HTU21D;67641;59.864;30.464;2023-07-08T12:48:50;33.95;47.05
78366;HTU21D;67641;59.864;30.464;2023-07-08T12:51:22;33.79;47.57
78366;HTU21D;67641;59.864;30.464;2023-07-08T12:53:50;33.97;47.73
78366;HTU21D;67641;59.864;30.464;2023-07-08T12:56:18;34.52;46.62
78366;HTU21D;67641;59.864;30.464;2023-07-08T12:58:51;34.84;45.98
78366;HTU21D;67641;59.864;30.464;2023-07-08T13:01:20;34.97;45.09
78366;HTU21D;67641;59.864;30.464;2023-07-08T13:05:31;34.63;46.03
78366;HTU21D;67641;59.864;30.464;2023-07-08T13:07:58;34.94;45.64
78366;HTU21D;67641;59.864;30.464;2023-07-08T13:10:29;35.30;44.22
78366;HTU21D;67641;59.864;30.464;2023-07-08T13:13:00;35.52;43.77
78366;HTU21D;67641;59.864;30.464;2023-07-08T13:15:38;35.55;44.25
78366;HTU21D;67641;59.864;30.464;2023-07-08T13:18:17;35.38;44.83
78366;HTU21D;67641;59.864;30.464;2023-07-08T13:20:54;35.14;45.30
78366;HTU21D;67641;59.864;30.464;2023-07-08T13:23:22;35.16;45.45
78366;HTU21D;67641;59.864;30.464;2023-07-08T13:26:16;35.48;44.42
78366;HTU21D;67641;59.864;30.464;2023-07-08T13:28:43;35.70;43.94
78366;HTU21D;67641;59.864;30.464;2023-07-08T13:31:22;35.80;43.08
78366;HTU21D;67641;59.864;30.464;2023-07-08T13:33:53;36.03;42.75
78366;HTU21D;67641;59.864;30.464;2023-07-08T13:36:23;36.13;42.98
78366;HTU21D;67641;59.864;30.464;2023-07-08T13:38:51;36.23;42.85
78366;HTU21D;67641;59.864;30.464;2023-07-08T13:41:23;36.38;42.32
78366;HTU21D;67641;59.864;30.464;2023-07-08T13:49:12;36.63;39.49
78366;HTU21D;67641;59.864;30.464;2023-07-08T13:51:39;36.66;38.14
78366;HTU21D;67641;59.864;30.464;2023-07-08T13:54:27;36.34;38.59
78366;HTU21D;67641;59.864;30.464;2023-07-08T13:57:01;36.28;38.75
78366;HTU21D;67641;59.864;30.464;2023-07-08T13:59:28;36.29;39.15
78366;HTU21D;67641;59.864;30.464;2023-07-08T14:01:57;36.47;39.36
78366;HTU21D;67641;59.864;30.464;2023-07-08T14:07:00;36.66;38.92
78366;HTU21D;67641;59.864;30.464;2023-07-08T14:09:26;36.59;39.01
78366;HTU21D;67641;59.864;30.464;2023-07-08T14:11:53;36.70;39.04
78366;HTU21D;67641;59.864;30.464;2023-07-08T14:14:20;36.61;39.33
78366;HTU21D;67641;59.864;30.464;2023-07-08T14:16:52;36.77;39.70
78366;HTU21D;67641;59.864;30.464;2023-07-08T14:19:21;36.92;39.52
78366;HTU21D;67641;59.864;30.464;2023-07-08T14:21:53;36.85;39.52
78366;HTU21D;67641;59.864;30.464;2023-07-08T14:24:20;36.82;39.49
78366;HTU21D;67641;59.864;30.464;2023-07-08T14:28:36;36.71;39.84
78366;HTU21D;67641;59.864;30.464;2023-07-08T14:31:02;36.42;40.13
78366;HTU21D;67641;59.864;30.464;2023-07-08T14:33:29;36.45;40.15
78366;HTU21D;67641;59.864;30.464;2023-07-08T14:35:55;36.55;40.24
78366;HTU21D;67641;59.864;30.464;2023-07-08T14:38:22;36.42;40.78
78366;HTU21D;67641;59.864;30.464;2023-07-08T14:40:48;36.17;41.43
78366;HTU21D;67641;59.864;30.464;2023-07-08T14:43:17;36.03;41.46
78366;HTU21D;67641;59.864;30.464;2023-07-08T15:35:44;35.00;43.80
78366;HTU21D;67641;59.864;30.464;2023-07-08T15:38:13;35.08;43.65
78366;HTU21D;67641;59.864;30.464;2023-07-08T15:40:41;35.10;43.80
78366;HTU21D;67641;59.864;30.464;2023-07-08T15:43:12;35.14;43.77
78366;HTU21D;67641;59.864;30.464;2023-07-08T15:45:40;35.23;44.03
78366;HTU21D;67641;59.864;30.464;2023-07-08T15:48:15;35.25;43.10
78366;HTU21D;67641;59.864;30.464;2023-07-08T15:50:42;35.10;43.40
78366;HTU21D;67641;59.864;30.464;2023-07-08T15:55:44;34.61;45.55
78366;HTU21D;67641;59.864;30.464;2023-07-08T15:58:28;34.25;46.12
78366;HTU21D;67641;59.864;30.464;2023-07-08T16:00:59;34.03;46.73
78366;HTU21D;67641;59.864;30.464;2023-07-08T16:03:32;33.78;48.31
78366;HTU21D;67641;59.864;30.464;2023-07-08T16:06:03;33.60;47.54
78366;HTU21D;67641;59.864;30.464;2023-07-08T16:08:33;33.50;49.38
78366;HTU21D;67641;59.864;30.464;2023-07-08T16:11:05;33.36;48.45
78366;HTU21D;67641;59.864;30.464;2023-07-08T16:13:37;33.22;49.09
78366;HTU21D;67641;59.864;30.464;2023-07-08T16:17:20;33.05;49.14
78366;HTU21D;67641;59.864;30.464;2023-07-08T16:19:46;32.96;50.66
78366;HTU21D;67641;59.864;30.464;2023-07-08T16:22:13;32.87;50.90
78366;HTU21D;67641;59.864;30.464;2023-07-08T16:24:40;32.81;50.40
78366;HTU21D;67641;59.864;30.464;2023-07-08T16:27:08;32.72;50.99
78366;HTU21D;67641;59.864;30.464;2023-07-08T16:29:38;32.63;51.69
78366;HTU21D;67641;59.864;30.464;2023-07-08T16:32:13;32.59;51.23
78366;HTU21D;67641;59.864;30.464;2023-07-08T16:37:15;32.44;51.33
78366;HTU21D;67641;59.864;30.464;2023-07-08T16:39:41;32.20;51.87
78366;HTU21D;67641;59.864;30.464;2023-07-08T16:42:14;32.16;51.46
78366;HTU21D;67641;59.864;30.464;2023-07-08T16:44:42;32.11;51.99
78366;HTU21D;67641;59.864;30.464;2023-07-08T16:47:08;31.98;51.96
78366;HTU21D;67641;59.864;30.464;2023-07-08T16:49:36;31.87;52.98
78366;HTU21D;67641;59.864;30.464;2023-07-08T16:52:10;31.79;52.76
78366;HTU21D;67641;59.864;30.464;2023-07-08T16:54:38;31.72;53.04
78366;HTU21D;67641;59.864;30.464;2023-07-08T16:57:20;31.68;52.98
78366;HTU21D;67641;59.864;30.464;2023-07-08T16:59:47;31.61;53.09
78366;HTU21D;67641;59.864;30.464;2023-07-08T17:02:15;31.59;53.01
78366;HTU21D;67641;59.864;30.464;2023-07-08T17:04:44;31.56;52.40
78366;HTU21D;67641;59.864;30.464;2023-07-08T17:07:11;31.54;52.69
78366;HTU21D;67641;59.864;30.464;2023-07-08T17:09:38;31.51;53.13
78366;HTU21D;67641;59.864;30.464;2023-07-08T17:12:09;31.45;53.02
78366;HTU21D;67641;59.864;30.464;2023-07-08T17:14:36;31.36;53.36
78366;HTU21D;67641;59.864;30.464;2023-07-08T17:18:22;31.27;53.72
78366;HTU21D;67641;59.864;30.464;2023-07-08T17:20:51;31.15;53.81
78366;HTU21D;67641;59.864;30.464;2023-07-08T17:23:20;31.11;53.67
78366;HTU21D;67641;59.864;30.464;2023-07-08T17:25:47;31.07;54.12
78366;HTU21D;67641;59.864;30.464;2023-07-08T17:28:14;31.02;54.07
78366;HTU21D;67641;59.864;30.464;2023-07-08T17:30:42;30.97;54.73
78366;HTU21D;67641;59.864;30.464;2023-07-08T17:33:17;30.96;54.40
78366;HTU21D;67641;59.864;30.464;2023-07-08T17:35:46;30.93;54.56
78366;HTU21D;67641;59.864;30.464;2023-07-08T17:39:55;30.91;54.25
78366;HTU21D;67641;59.864;30.464;2023-07-08T17:42:22;30.77;54.69
78366;HTU21D;67641;59.864;30.464;2023-07-08T17:44:49;30.71;54.87
78366;HTU21D;67641;59.864;30.464;2023-07-08T17:47:19;30.65;54.86
78366;HTU21D;67641;59.864;30.464;2023-07-08T17:49:49;30.53;55.43
78366;HTU21D;67641;59.864;30.464;2023-07-08T17:52:16;30.49;55.29
78366;HTU21D;67641;59.864;30.464;2023-07-08T17:54:44;30.41;55.43
78366;HTU21D;67641;59.864;30.464;2023-07-08T17:57:11;30.42;55.49
78366;HTU21D;67641;59.864;30.464;2023-07-08T18:00:41;30.25;55.16
78366;HTU21D;67641;59.864;30.464;2023-07-08T18:03:38;30.20;55.47
78366;HTU21D;67641;59.864;30.464;2023-07-08T18:06:06;30.20;54.30
78366;HTU21D;67641;59.864;30.464;2023-07-08T18:08:34;30.19;53.25
78366;HTU21D;67641;59.864;30.464;2023-07-08T18:11:01;30.17;51.42
78366;HTU21D;67641;59.864;30.464;2023-07-08T18:13:34;30.15;52.09
78366;HTU21D;67641;59.864;30.464;2023-07-08T18:16:13;30.08;52.59
78366;HTU21D;67641;59.864;30.464;2023-07-08T18:18:42;30.04;51.88
78366;HTU21D;67641;59.864;30.464;2023-07-08T18:23:36;29.96;50.40
78366;HTU21D;67641;59.864;30.464;2023-07-08T18:29:34;29.87;50.69
78366;HTU21D;67641;59.864;30.464;2023-07-08T18:32:11;29.80;51.46
78366;HTU21D;67641;59.864;30.464;2023-07-08T18:38:25;29.74;51.53
78366;HTU21D;67641;59.864;30.464;2023-07-08T18:44:31;29.50;52.27
78366;HTU21D;67641;59.864;30.464;2023-07-08T18:50:44;29.37;53.21
78366;HTU21D;67641;59.864;30.464;2023-07-08T18:53:39;29.35;53.52
78366;HTU21D;67641;59.864;30.464;2023-07-08T18:58:13;29.35;52.46
78366;HTU21D;67641;59.864;30.464;2023-07-08T19:00:48;29.34;51.87
78366;HTU21D;67641;59.864;30.464;2023-07-08T19:03:25;29.28;51.82
78366;HTU21D;67641;59.864;30.464;2023-07-08T19:05:56;29.17;52.65
78366;HTU21D;67641;59.864;30.464;2023-07-08T19:08:29;29.13;52.24
78366;HTU21D;67641;59.864;30.464;2023-07-08T19:11:01;29.13;51.65
78366;HTU21D;67641;59.864;30.464;2023-07-08T19:13:32;29.14;51.68
78366;HTU21D;67641;59.864;30.464;2023-07-08T19:18:01;29.15;51.72
78366;HTU21D;67641;59.864;30.464;2023-07-08T19:34:25;28.90;50.71
78366;HTU21D;67641;59.864;30.464;2023-07-08T19:36:55;28.87;50.40
78366;HTU21D;67641;59.864;30.464;2023-07-08T19:39:23;28.83;51.00
78366;HTU21D;67641;59.864;30.464;2023-07-08T19:41:54;28.74;50.11
78366;HTU21D;67641;59.864;30.464;2023-07-08T20:05:13;28.42;48.23
78366;HTU21D;67641;59.864;30.464;2023-07-08T20:11:34;28.33;48.37
78366;HTU21D;67641;59.864;30.464;2023-07-08T20:20:55;28.18;46.40
78366;HTU21D;67641;59.864;30.464;2023-07-08T20:27:24;28.19;46.46
78366;HTU21D;67641;59.864;30.464;2023-07-08T20:30:34;28.10;46.12
78366;HTU21D;67641;59.864;30.464;2023-07-08T20:33:03;28.05;46.48
78366;HTU21D;67641;59.864;30.464;2023-07-08T20:35:38;28.05;46.15